ADDS METAR Data INFO
IDs: Format: Raw Decoded Include TAF

Data at: 1514 UTC 19 Jan 2018

METAR for:KILN (Wilmington Arpt, OH, US)
Text:KILN 191454Z AUTO 21013KT 10SM CLR M05/M11 A3014 RMK AO2 SLP239 T10501106 50000
Temperature: -5.0°C ( 23°F)
Dewpoint:-10.6°C ( 13°F) [RH = 65%]
Pressure (altimeter):30.14 inches Hg (1020.7 mb) [Sea level pressure: 1023.9 mb]
Winds:from the SSW (210 degrees) at 15 MPH (13 knots; 6.7 m/s)
Visibility:10 or more sm (16+ km)
Ceiling:at least 12,000 feet AGL
Clouds:sky clear below 12,000 feet AGL
QC Flag:automated observation with no human augmentation